sensor_id;sensor_type;location;lat;lon;timestamp;P1;durP1;ratioP1;P2;durP2;ratioP2
14472;SDS011;7322;50.872;4.386;2022-11-15T00:00:59;26.93;;;18.20;;
14472;SDS011;7322;50.872;4.386;2022-11-15T00:03:29;28.70;;;18.20;;
14472;SDS011;7322;50.872;4.386;2022-11-15T00:06:02;26.13;;;19.53;;
14472;SDS011;7322;50.872;4.386;2022-11-15T00:08:30;26.57;;;18.87;;
14472;SDS011;7322;50.872;4.386;2022-11-15T00:10:58;26.97;;;18.70;;
14472;SDS011;7322;50.872;4.386;2022-11-15T00:13:26;25.23;;;18.43;;
14472;SDS011;7322;50.872;4.386;2022-11-15T00:15:56;26.67;;;18.77;;
14472;SDS011;7322;50.872;4.386;2022-11-15T00:18:24;26.47;;;19.63;;
14472;SDS011;7322;50.872;4.386;2022-11-15T00:20:53;24.60;;;18.63;;
14472;SDS011;7322;50.872;4.386;2022-11-15T00:23:20;26.17;;;17.83;;
14472;SDS011;7322;50.872;4.386;2022-11-15T00:25:51;23.07;;;18.00;;
14472;SDS011;7322;50.872;4.386;2022-11-15T00:28:21;26.07;;;19.37;;
14472;SDS011;7322;50.872;4.386;2022-11-15T00:30:48;28.20;;;20.57;;
14472;SDS011;7322;50.872;4.386;2022-11-15T00:33:15;30.00;;;19.70;;
14472;SDS011;7322;50.872;4.386;2022-11-15T00:35:42;27.27;;;19.90;;
14472;SDS011;7322;50.872;4.386;2022-11-15T00:38:12;27.17;;;20.17;;
14472;SDS011;7322;50.872;4.386;2022-11-15T00:40:39;29.80;;;19.87;;
14472;SDS011;7322;50.872;4.386;2022-11-15T00:43:07;28.90;;;19.93;;
14472;SDS011;7322;50.872;4.386;2022-11-15T00:45:34;27.23;;;20.40;;
14472;SDS011;7322;50.872;4.386;2022-11-15T00:48:01;32.40;;;18.93;;
14472;SDS011;7322;50.872;4.386;2022-11-15T00:50:28;24.77;;;19.37;;
14472;SDS011;7322;50.872;4.386;2022-11-15T00:52:55;26.63;;;18.23;;
14472;SDS011;7322;50.872;4.386;2022-11-15T00:55:24;25.00;;;18.83;;
14472;SDS011;7322;50.872;4.386;2022-11-15T00:57:51;29.17;;;18.10;;
14472;SDS011;7322;50.872;4.386;2022-11-15T01:00:18;23.13;;;18.03;;
14472;SDS011;7322;50.872;4.386;2022-11-15T01:02:46;26.93;;;19.00;;
14472;SDS011;7322;50.872;4.386;2022-11-15T01:05:16;26.40;;;18.60;;
14472;SDS011;7322;50.872;4.386;2022-11-15T01:07:45;26.30;;;18.80;;
14472;SDS011;7322;50.872;4.386;2022-11-15T01:10:19;28.40;;;18.07;;
14472;SDS011;7322;50.872;4.386;2022-11-15T01:12:59;27.10;;;19.30;;
14472;SDS011;7322;50.872;4.386;2022-11-15T01:15:28;27.30;;;20.27;;
14472;SDS011;7322;50.872;4.386;2022-11-15T01:18:03;26.67;;;18.43;;
14472;SDS011;7322;50.872;4.386;2022-11-15T01:20:30;27.57;;;20.33;;
14472;SDS011;7322;50.872;4.386;2022-11-15T01:23:04;27.33;;;20.13;;
14472;SDS011;7322;50.872;4.386;2022-11-15T01:25:40;28.47;;;20.27;;
14472;SDS011;7322;50.872;4.386;2022-11-15T01:28:24;25.10;;;19.83;;
14472;SDS011;7322;50.872;4.386;2022-11-15T01:31:03;30.50;;;20.10;;
14472;SDS011;7322;50.872;4.386;2022-11-15T01:39:18;28.30;;;19.73;;
14472;SDS011;7322;50.872;4.386;2022-11-15T01:48:13;26.97;;;19.30;;
14472;SDS011;7322;50.872;4.386;2022-11-15T01:54:02;24.37;;;17.13;;
14472;SDS011;7322;50.872;4.386;2022-11-15T02:02:52;23.93;;;17.40;;
14472;SDS011;7322;50.872;4.386;2022-11-15T02:05:29;23.23;;;16.73;;
14472;SDS011;7322;50.872;4.386;2022-11-15T02:07:57;25.17;;;16.77;;
14472;SDS011;7322;50.872;4.386;2022-11-15T02:10:27;21.90;;;16.53;;
14472;SDS011;7322;50.872;4.386;2022-11-15T02:12:54;23.27;;;17.17;;
14472;SDS011;7322;50.872;4.386;2022-11-15T02:15:23;25.00;;;16.80;;
14472;SDS011;7322;50.872;4.386;2022-11-15T02:20:41;23.93;;;17.03;;
14472;SDS011;7322;50.872;4.386;2022-11-15T02:35:48;25.93;;;17.23;;
14472;SDS011;7322;50.872;4.386;2022-11-15T02:38:32;25.33;;;17.10;;
14472;SDS011;7322;50.872;4.386;2022-11-15T02:41:07;19.70;;;16.07;;
14472;SDS011;7322;50.872;4.386;2022-11-15T02:43:53;24.10;;;16.47;;
14472;SDS011;7322;50.872;4.386;2022-11-15T02:49:18;22.27;;;15.73;;
14472;SDS011;7322;50.872;4.386;2022-11-15T02:51:49;22.03;;;15.77;;
14472;SDS011;7322;50.872;4.386;2022-11-15T02:54:20;18.13;;;15.13;;
14472;SDS011;7322;50.872;4.386;2022-11-15T02:56:49;20.40;;;15.40;;
14472;SDS011;7322;50.872;4.386;2022-11-15T02:59:25;18.70;;;14.27;;
14472;SDS011;7322;50.872;4.386;2022-11-15T03:02:12;19.50;;;13.97;;
14472;SDS011;7322;50.872;4.386;2022-11-15T03:04:54;19.73;;;14.33;;
14472;SDS011;7322;50.872;4.386;2022-11-15T03:07:26;19.40;;;13.80;;
14472;SDS011;7322;50.872;4.386;2022-11-15T03:09:57;19.63;;;14.13;;
14472;SDS011;7322;50.872;4.386;2022-11-15T03:12:34;21.83;;;13.40;;
14472;SDS011;7322;50.872;4.386;2022-11-15T03:15:09;17.20;;;11.90;;
14472;SDS011;7322;50.872;4.386;2022-11-15T03:17:51;17.43;;;11.43;;
14472;SDS011;7322;50.872;4.386;2022-11-15T03:20:27;17.50;;;11.77;;
14472;SDS011;7322;50.872;4.386;2022-11-15T03:26:19;13.63;;;10.80;;
14472;SDS011;7322;50.872;4.386;2022-11-15T03:28:58;16.67;;;11.00;;
14472;SDS011;7322;50.872;4.386;2022-11-15T03:31:42;18.67;;;10.67;;
14472;SDS011;7322;50.872;4.386;2022-11-15T03:34:16;15.47;;;10.83;;
14472;SDS011;7322;50.872;4.386;2022-11-15T03:36:48;14.00;;;9.87;;
14472;SDS011;7322;50.872;4.386;2022-11-15T03:39:17;15.30;;;10.10;;
14472;SDS011;7322;50.872;4.386;2022-11-15T03:41:47;11.97;;;9.87;;
14472;SDS011;7322;50.872;4.386;2022-11-15T03:44:20;16.63;;;9.37;;
14472;SDS011;7322;50.872;4.386;2022-11-15T03:47:01;13.33;;;9.57;;
14472;SDS011;7322;50.872;4.386;2022-11-15T03:49:33;13.43;;;9.13;;
14472;SDS011;7322;50.872;4.386;2022-11-15T03:52:01;13.73;;;8.30;;
14472;SDS011;7322;50.872;4.386;2022-11-15T03:54:29;13.17;;;8.47;;
14472;SDS011;7322;50.872;4.386;2022-11-15T03:56:58;12.57;;;8.73;;
14472;SDS011;7322;50.872;4.386;2022-11-15T03:59:25;16.30;;;8.73;;
14472;SDS011;7322;50.872;4.386;2022-11-15T04:01:53;13.20;;;8.53;;
14472;SDS011;7322;50.872;4.386;2022-11-15T04:04:20;12.60;;;7.97;;
14472;SDS011;7322;50.872;4.386;2022-11-15T04:06:48;15.03;;;8.60;;
14472;SDS011;7322;50.872;4.386;2022-11-15T04:09:15;13.00;;;7.80;;
14472;SDS011;7322;50.872;4.386;2022-11-15T04:11:41;12.97;;;7.80;;
14472;SDS011;7322;50.872;4.386;2022-11-15T04:14:10;12.80;;;7.60;;
14472;SDS011;7322;50.872;4.386;2022-11-15T04:16:37;10.53;;;7.37;;
14472;SDS011;7322;50.872;4.386;2022-11-15T04:19:04;10.60;;;7.47;;
14472;SDS011;7322;50.872;4.386;2022-11-15T04:21:48;11.80;;;7.00;;
14472;SDS011;7322;50.872;4.386;2022-11-15T04:24:32;8.73;;;6.77;;
14472;SDS011;7322;50.872;4.386;2022-11-15T04:26:59;10.30;;;7.50;;
14472;SDS011;7322;50.872;4.386;2022-11-15T04:29:28;11.60;;;7.30;;
14472;SDS011;7322;50.872;4.386;2022-11-15T04:32:01;13.27;;;7.30;;
14472;SDS011;7322;50.872;4.386;2022-11-15T04:34:28;9.73;;;6.53;;
14472;SDS011;7322;50.872;4.386;2022-11-15T04:36:55;11.40;;;6.83;;
14472;SDS011;7322;50.872;4.386;2022-11-15T04:39:41;10.60;;;6.00;;
14472;SDS011;7322;50.872;4.386;2022-11-15T04:42:09;10.00;;;6.60;;
14472;SDS011;7322;50.872;4.386;2022-11-15T04:44:38;10.17;;;6.60;;
14472;SDS011;7322;50.872;4.386;2022-11-15T04:47:05;11.43;;;6.80;;
14472;SDS011;7322;50.872;4.386;2022-11-15T04:49:31;8.33;;;6.10;;
14472;SDS011;7322;50.872;4.386;2022-11-15T04:51:58;10.07;;;5.80;;
14472;SDS011;7322;50.872;4.386;2022-11-15T04:54:25;9.40;;;6.30;;
14472;SDS011;7322;50.872;4.386;2022-11-15T04:56:52;11.13;;;5.77;;
14472;SDS011;7322;50.872;4.386;2022-11-15T04:59:19;7.00;;;5.50;;
14472;SDS011;7322;50.872;4.386;2022-11-15T05:01:48;9.53;;;5.70;;
14472;SDS011;7322;50.872;4.386;2022-11-15T05:04:15;9.10;;;6.10;;
14472;SDS011;7322;50.872;4.386;2022-11-15T05:06:50;7.77;;;5.70;;
14472;SDS011;7322;50.872;4.386;2022-11-15T05:09:17;10.73;;;5.93;;
14472;SDS011;7322;50.872;4.386;2022-11-15T05:11:45;10.00;;;6.07;;
14472;SDS011;7322;50.872;4.386;2022-11-15T05:14:12;7.47;;;5.07;;
14472;SDS011;7322;50.872;4.386;2022-11-15T05:16:40;9.57;;;5.20;;
14472;SDS011;7322;50.872;4.386;2022-11-15T05:19:08;9.80;;;5.10;;
14472;SDS011;7322;50.872;4.386;2022-11-15T05:21:36;9.87;;;4.90;;
14472;SDS011;7322;50.872;4.386;2022-11-15T05:24:03;8.20;;;5.53;;
14472;SDS011;7322;50.872;4.386;2022-11-15T05:26:31;8.73;;;4.20;;
14472;SDS011;7322;50.872;4.386;2022-11-15T05:28:59;7.70;;;4.53;;
14472;SDS011;7322;50.872;4.386;2022-11-15T05:31:26;8.80;;;5.00;;
14472;SDS011;7322;50.872;4.386;2022-11-15T05:33:55;9.30;;;4.67;;
14472;SDS011;7322;50.872;4.386;2022-11-15T05:36:27;6.33;;;4.10;;
14472;SDS011;7322;50.872;4.386;2022-11-15T05:38:59;9.00;;;4.20;;
14472;SDS011;7322;50.872;4.386;2022-11-15T05:41:29;7.67;;;4.27;;
14472;SDS011;7322;50.872;4.386;2022-11-15T05:43:59;8.50;;;3.77;;
14472;SDS011;7322;50.872;4.386;2022-11-15T05:46:28;9.30;;;4.27;;
14472;SDS011;7322;50.872;4.386;2022-11-15T05:48:56;7.47;;;3.87;;
14472;SDS011;7322;50.872;4.386;2022-11-15T05:51:24;8.13;;;4.20;;
14472;SDS011;7322;50.872;4.386;2022-11-15T05:53:54;7.57;;;3.70;;
14472;SDS011;7322;50.872;4.386;2022-11-15T05:56:25;8.80;;;4.10;;
14472;SDS011;7322;50.872;4.386;2022-11-15T05:58:52;7.83;;;4.00;;
14472;SDS011;7322;50.872;4.386;2022-11-15T06:01:20;7.40;;;3.80;;
14472;SDS011;7322;50.872;4.386;2022-11-15T06:03:47;7.47;;;4.53;;
14472;SDS011;7322;50.872;4.386;2022-11-15T06:06:14;6.30;;;3.50;;
14472;SDS011;7322;50.872;4.386;2022-11-15T06:08:41;11.27;;;4.70;;
14472;SDS011;7322;50.872;4.386;2022-11-15T06:11:09;7.27;;;4.03;;
14472;SDS011;7322;50.872;4.386;2022-11-15T06:13:36;7.67;;;4.03;;
14472;SDS011;7322;50.872;4.386;2022-11-15T06:16:03;6.27;;;4.00;;
14472;SDS011;7322;50.872;4.386;2022-11-15T06:18:31;8.27;;;4.47;;
14472;SDS011;7322;50.872;4.386;2022-11-15T06:20:59;8.63;;;4.07;;
14472;SDS011;7322;50.872;4.386;2022-11-15T06:23:31;8.33;;;4.20;;
14472;SDS011;7322;50.872;4.386;2022-11-15T06:25:59;9.10;;;3.77;;
14472;SDS011;7322;50.872;4.386;2022-11-15T06:28:29;9.83;;;3.83;;
14472;SDS011;7322;50.872;4.386;2022-11-15T06:31:01;7.73;;;4.10;;
14472;SDS011;7322;50.872;4.386;2022-11-15T06:33:28;7.47;;;3.80;;
14472;SDS011;7322;50.872;4.386;2022-11-15T06:35:59;8.80;;;4.20;;
14472;SDS011;7322;50.872;4.386;2022-11-15T06:38:27;6.90;;;3.57;;
14472;SDS011;7322;50.872;4.386;2022-11-15T06:40:55;7.60;;;3.90;;
14472;SDS011;7322;50.872;4.386;2022-11-15T06:43:29;7.77;;;3.40;;
14472;SDS011;7322;50.872;4.386;2022-11-15T06:45:57;5.70;;;3.33;;
14472;SDS011;7322;50.872;4.386;2022-11-15T06:48:24;7.07;;;4.00;;
14472;SDS011;7322;50.872;4.386;2022-11-15T06:50:51;9.00;;;4.50;;
14472;SDS011;7322;50.872;4.386;2022-11-15T06:53:19;5.30;;;3.70;;
14472;SDS011;7322;50.872;4.386;2022-11-15T06:55:46;5.80;;;3.20;;
14472;SDS011;7322;50.872;4.386;2022-11-15T06:58:13;6.83;;;3.43;;
14472;SDS011;7322;50.872;4.386;2022-11-15T07:00:42;7.13;;;3.90;;
14472;SDS011;7322;50.872;4.386;2022-11-15T07:03:09;6.10;;;3.20;;
14472;SDS011;7322;50.872;4.386;2022-11-15T07:05:38;5.90;;;3.40;;
14472;SDS011;7322;50.872;4.386;2022-11-15T07:08:05;4.40;;;3.53;;
14472;SDS011;7322;50.872;4.386;2022-11-15T07:10:32;8.20;;;3.60;;
14472;SDS011;7322;50.872;4.386;2022-11-15T07:12:59;6.03;;;3.50;;
14472;SDS011;7322;50.872;4.386;2022-11-15T07:15:26;7.20;;;3.23;;
14472;SDS011;7322;50.872;4.386;2022-11-15T07:17:55;7.33;;;3.80;;
14472;SDS011;7322;50.872;4.386;2022-11-15T07:20:22;6.33;;;3.30;;
14472;SDS011;7322;50.872;4.386;2022-11-15T07:22:49;7.03;;;3.60;;
14472;SDS011;7322;50.872;4.386;2022-11-15T07:25:16;5.60;;;3.90;;
14472;SDS011;7322;50.872;4.386;2022-11-15T07:27:43;7.87;;;3.23;;
14472;SDS011;7322;50.872;4.386;2022-11-15T07:30:10;6.50;;;3.60;;
14472;SDS011;7322;50.872;4.386;2022-11-15T07:32:38;5.90;;;3.70;;
14472;SDS011;7322;50.872;4.386;2022-11-15T07:35:07;5.17;;;3.40;;
14472;SDS011;7322;50.872;4.386;2022-11-15T07:40:27;7.57;;;3.73;;
14472;SDS011;7322;50.872;4.386;2022-11-15T07:42:58;6.93;;;3.93;;
14472;SDS011;7322;50.872;4.386;2022-11-15T07:45:26;5.73;;;3.80;;
14472;SDS011;7322;50.872;4.386;2022-11-15T07:47:53;6.10;;;3.43;;
14472;SDS011;7322;50.872;4.386;2022-11-15T07:50:22;7.03;;;3.43;;
14472;SDS011;7322;50.872;4.386;2022-11-15T07:52:53;6.10;;;3.23;;
14472;SDS011;7322;50.872;4.386;2022-11-15T07:55:20;6.77;;;3.30;;
14472;SDS011;7322;50.872;4.386;2022-11-15T07:57:47;6.97;;;3.10;;
14472;SDS011;7322;50.872;4.386;2022-11-15T08:00:15;8.03;;;3.20;;
14472;SDS011;7322;50.872;4.386;2022-11-15T08:02:42;5.03;;;2.80;;
14472;SDS011;7322;50.872;4.386;2022-11-15T08:05:09;8.50;;;3.00;;
14472;SDS011;7322;50.872;4.386;2022-11-15T08:07:37;8.13;;;3.63;;
14472;SDS011;7322;50.872;4.386;2022-11-15T08:10:05;8.47;;;3.43;;
14472;SDS011;7322;50.872;4.386;2022-11-15T08:12:34;7.53;;;3.63;;
14472;SDS011;7322;50.872;4.386;2022-11-15T08:15:01;7.20;;;3.10;;
14472;SDS011;7322;50.872;4.386;2022-11-15T08:17:30;7.13;;;3.40;;
14472;SDS011;7322;50.872;4.386;2022-11-15T08:20:00;6.87;;;3.70;;
14472;SDS011;7322;50.872;4.386;2022-11-15T08:22:27;9.60;;;3.13;;
14472;SDS011;7322;50.872;4.386;2022-11-15T08:24:56;5.20;;;3.03;;
14472;SDS011;7322;50.872;4.386;2022-11-15T08:27:23;4.93;;;2.80;;
14472;SDS011;7322;50.872;4.386;2022-11-15T08:29:52;6.53;;;2.83;;
14472;SDS011;7322;50.872;4.386;2022-11-15T08:32:22;6.63;;;2.40;;
14472;SDS011;7322;50.872;4.386;2022-11-15T08:34:49;6.27;;;2.43;;
14472;SDS011;7322;50.872;4.386;2022-11-15T08:37:17;6.17;;;2.50;;
14472;SDS011;7322;50.872;4.386;2022-11-15T08:39:44;4.87;;;2.50;;
14472;SDS011;7322;50.872;4.386;2022-11-15T08:42:12;5.33;;;2.10;;
14472;SDS011;7322;50.872;4.386;2022-11-15T08:44:40;6.00;;;2.30;;
14472;SDS011;7322;50.872;4.386;2022-11-15T08:47:07;4.50;;;1.90;;
14472;SDS011;7322;50.872;4.386;2022-11-15T08:49:37;7.33;;;2.30;;
14472;SDS011;7322;50.872;4.386;2022-11-15T08:52:04;6.03;;;2.63;;
14472;SDS011;7322;50.872;4.386;2022-11-15T08:54:30;4.57;;;2.30;;
14472;SDS011;7322;50.872;4.386;2022-11-15T08:56:59;7.53;;;2.80;;
14472;SDS011;7322;50.872;4.386;2022-11-15T08:59:27;5.97;;;2.20;;
